Agia Eirini — V7AV4 — position and weather

sailwx.info

Track history (hours):
 
Tides and Currents Weather Stations Pressure Air Temp Water Temp Dewpoint Dewpoint Depression Visibility Wind Speed Wind Dir Waves Ship Positions

Agia Eirini

Last reported at 2017-Dec-28 11:18 UTC. Time now 2018-Jan-20 15:32 UTC.
Position N 27°43' W 015°14'.
Warning: this ship's position is 23 days out of date.

Length 190 m; draft 10.1 m.

Type: Cargo ship. MMSI: 538005075.

Date/timePositionNaut miles runAvg speedWind from/ knotsBaromVisibWave heightAir tempDewpointWater temp
2017-Dec-28 11:18N 27°43' W 015°14'412.1
2017-Dec-28 10:58N 27°47' W 015°14'612.5
2017-Dec-28 10:30N 27°53' W 015°15'612.6
2017-Dec-28 10:00N 27°59' W 015°16'612.2
2017-Dec-28 09:30N 28°04' W 015°20'4 7.6
2017-Dec-28 09:00N 28°06' W 015°24'0 0.2
2017-Dec-28 08:30N 28°06' W 015°24'0 0.0
2017-Dec-28 08:00N 28°06' W 015°24'0 0.0
2017-Dec-28 07:30N 28°06' W 015°24'0 0.0
2017-Dec-28 07:00N 28°06' W 015°24'0 0.1
2017-Dec-28 06:30N 28°06' W 015°24'0 0.0
2017-Dec-28 06:00N 28°06' W 015°24'0 0.0
2017-Dec-28 05:30N 28°06' W 015°24'0 0.0
2017-Dec-28 05:00N 28°06' W 015°24'0 0.0
2017-Dec-28 04:30N 28°06' W 015°24'0 0.0
2017-Dec-28 04:00N 28°06' W 015°24'0 0.0
2017-Dec-28 03:30N 28°06' W 015°24'0 0.0
2017-Dec-28 03:00N 28°06' W 015°24'0 0.1
2017-Dec-28 02:30N 28°06' W 015°24'0 0.0
2017-Dec-28 02:00N 28°06' W 015°24'0 0.0
2017-Dec-28 01:30N 28°06' W 015°24'0 0.0
2017-Dec-28 01:00N 28°06' W 015°24'0 0.0
2017-Dec-28 00:30N 28°06' W 015°24'0 0.3
2017-Dec-28 00:00N 28°06' W 015°24'0 0.3
2017-Dec-27 23:30N 28°06' W 015°24'1 1.9
2017-Dec-27 23:00N 28°07' W 015°23'0 0.9
2017-Dec-27 22:30N 28°07' W 015°23'1 2.9
2017-Dec-27 22:00N 28°08' W 015°22'4 8.8
2017-Dec-27 21:30N 28°12' W 015°19'612.3
2017-Dec-27 21:00N 28°17' W 015°15'612.1
2017-Dec-27 20:30N 28°22' W 015°11'612.3
2017-Dec-27 20:00N 28°27' W 015°07'612.6
2017-Dec-27 19:30N 28°32' W 015°04'612.6
2017-Dec-27 19:00N 28°38' W 015°00'612.6
2017-Dec-27 18:30N 28°44' W 014°57'  
2017-Dec-23 20:37N 43°53' W 005°24'211.9
2017-Dec-23 20:30N 43°52' W 005°22'612.0
2017-Dec-23 19:59N 43°51' W 005°13'4412.0
2017-Dec-23 16:21N 43°43' W 004°14'411.9
2017-Dec-23 16:00N 43°42' W 004°08'611.6
2017-Dec-23 15:30N 43°41' W 004°00'611.7
2017-Dec-23 15:00N 43°40' W 003°52'611.8
2017-Dec-23 14:30N 43°39' W 003°44'611.9
2017-Dec-23 14:00N 43°37' W 003°36'611.9
2017-Dec-23 13:30N 43°36' W 003°29'611.4
2017-Dec-23 13:00N 43°33' W 003°22'611.8
2017-Dec-23 12:30N 43°29' W 003°15'611.8
2017-Dec-23 12:00N 43°26' W 003°09'5 9.6
2017-Dec-23 11:30N 43°22' W 003°04'2 4.6
2017-Dec-23 11:00N 43°20' W 003°02'0 0.1
2017-Dec-23 10:30N 43°21' W 003°02'0 0.0
2017-Dec-23 10:00N 43°21' W 003°02'0 0.0
2017-Dec-23 09:30N 43°21' W 003°02'0 0.0
2017-Dec-23 09:00N 43°21' W 003°02'0 0.0
2017-Dec-23 08:30N 43°21' W 003°02'0 0.0
2017-Dec-23 08:00N 43°21' W 003°02'0 0.0
2017-Dec-23 07:30N 43°21' W 003°02'0 0.0
2017-Dec-23 07:00N 43°21' W 003°02'0 0.0
2017-Dec-23 06:30N 43°21' W 003°02'0 0.0
2017-Dec-23 06:00N 43°21' W 003°02'0 0.0
2017-Dec-23 05:30N 43°21' W 003°02'0 0.0
2017-Dec-23 05:00N 43°21' W 003°02'0 0.0
2017-Dec-23 04:30N 43°21' W 003°02'0 0.0
2017-Dec-23 04:00N 43°21' W 003°02'0 0.0
2017-Dec-23 03:30N 43°21' W 003°02'0 0.0
2017-Dec-23 03:00N 43°21' W 003°02'0 0.0
2017-Dec-23 02:30N 43°21' W 003°02'0 0.0
2017-Dec-23 02:00N 43°21' W 003°02'0 0.0
2017-Dec-23 01:30N 43°21' W 003°02'0 0.0
2017-Dec-23 01:00N 43°21' W 003°02'0 0.0
2017-Dec-23 00:30N 43°21' W 003°02'0 0.0
2017-Dec-23 00:00N 43°21' W 003°02'0 0.0
2017-Dec-22 23:30N 43°21' W 003°02'0 0.0
2017-Dec-22 23:00N 43°21' W 003°02'0 0.0
2017-Dec-22 22:30N 43°21' W 003°02'0 0.0
2017-Dec-22 22:00N 43°21' W 003°02'0 0.0
2017-Dec-22 21:30N 43°21' W 003°02'0 0.0
2017-Dec-22 21:00N 43°21' W 003°02'0 0.0
2017-Dec-22 20:30N 43°21' W 003°02'0 0.0
2017-Dec-22 20:00N 43°21' W 003°02'0 0.0
2017-Dec-22 19:30N 43°21' W 003°02'0 0.0
2017-Dec-22 19:00N 43°21' W 003°02'0 0.0
2017-Dec-22 18:30N 43°21' W 003°02'0 0.0
2017-Dec-22 18:00N 43°21' W 003°02'0 0.0
2017-Dec-22 17:30N 43°21' W 003°02'0 0.0
2017-Dec-22 17:00N 43°21' W 003°02'0 0.0
2017-Dec-22 16:30N 43°21' W 003°02'0 0.0
2017-Dec-22 16:00N 43°21' W 003°02'0 0.0
2017-Dec-22 15:30N 43°21' W 003°02'0 0.0
2017-Dec-22 15:00N 43°21' W 003°02'0 0.0
2017-Dec-22 14:30N 43°21' W 003°02'0 0.0
2017-Dec-22 14:00N 43°21' W 003°02'0 0.0
2017-Dec-22 13:30N 43°21' W 003°02'0 0.0
2017-Dec-22 13:00N 43°21' W 003°02'0 0.0
2017-Dec-22 12:30N 43°21' W 003°02'0 0.0
2017-Dec-22 12:00N 43°21' W 003°02'0 0.0
2017-Dec-22 11:30N 43°21' W 003°02'0 0.0
2017-Dec-22 11:00N 43°21' W 003°02'0 0.0
2017-Dec-22 10:30N 43°21' W 003°02'0 0.0
2017-Dec-22 10:00N 43°21' W 003°02'0 0.0
2017-Dec-22 09:30N 43°21' W 003°02'0 0.0
2017-Dec-22 09:00N 43°21' W 003°02'0 0.0
2017-Dec-22 08:30N 43°21' W 003°02'0 0.0
2017-Dec-22 08:00N 43°21' W 003°02'0 0.0
2017-Dec-22 07:30N 43°21' W 003°02'0 0.0
2017-Dec-22 07:00N 43°21' W 003°02'0 0.0
2017-Dec-22 06:30N 43°21' W 003°02'0 0.0
2017-Dec-22 06:00N 43°21' W 003°02'0 0.0
2017-Dec-22 05:30N 43°21' W 003°02'0 0.0
2017-Dec-22 05:00N 43°21' W 003°02'0 0.0
2017-Dec-22 04:30N 43°21' W 003°02'0 0.0
2017-Dec-22 04:00N 43°21' W 003°02'0 0.0
2017-Dec-22 03:30N 43°21' W 003°02'0 0.0
2017-Dec-22 03:00N 43°21' W 003°02'0 0.0
2017-Dec-22 02:30N 43°21' W 003°02'0 0.0
2017-Dec-22 02:00N 43°21' W 003°02'0 0.0
2017-Dec-22 01:30N 43°21' W 003°02'0 0.0
2017-Dec-22 01:00N 43°21' W 003°02'0 0.0
2017-Dec-22 00:30N 43°21' W 003°02'0 0.0
2017-Dec-22 00:00N 43°21' W 003°02'0 0.0
2017-Dec-21 23:30N 43°21' W 003°02'0 0.0
2017-Dec-21 23:00N 43°21' W 003°02'0 0.0
2017-Dec-21 22:30N 43°21' W 003°02'0 0.0
2017-Dec-21 22:00N 43°21' W 003°02'0 0.0
2017-Dec-21 21:30N 43°21' W 003°02'0 0.0
2017-Dec-21 21:00N 43°21' W 003°02'0 0.0
2017-Dec-21 20:30N 43°21' W 003°02'0 0.0
2017-Dec-21 20:00N 43°21' W 003°02'0 0.0
2017-Dec-21 19:30N 43°21' W 003°02'0 0.0
2017-Dec-21 19:00N 43°21' W 003°02'0 0.0
2017-Dec-21 18:29N 43°21' W 003°02'0 0.0
2017-Dec-21 17:59N 43°21' W 003°02'0 0.0
2017-Dec-21 17:29N 43°21' W 003°02'0 0.0
2017-Dec-21 16:56N 43°21' W 003°02'0 0.0
2017-Dec-21 16:29N 43°21' W 003°02'0 0.0
2017-Dec-21 15:59N 43°21' W 003°02'0 0.0
2017-Dec-21 15:29N 43°21' W 003°02'0 0.0
2017-Dec-21 14:59N 43°21' W 003°02'0 0.0
2017-Dec-21 14:29N 43°21' W 003°02'0 0.0
2017-Dec-21 13:59N 43°21' W 003°02'0 0.0
2017-Dec-21 13:29N 43°21' W 003°02'0 0.3
2017-Dec-21 13:00N 43°21' W 003°02'2 4.3
2017-Dec-21 12:30N 43°22' W 003°04'4 7.9
2017-Dec-21 12:00N 43°25' W 003°07'611.9
2017-Dec-21 11:30N 43°28' W 003°14'613.0
2017-Dec-21 11:00N 43°32' W 003°21'612.6
2017-Dec-21 10:30N 43°34' W 003°29'612.6
2017-Dec-21 10:00N 43°36' W 003°38'612.5
2017-Dec-21 09:30N 43°38' W 003°46'612.5
2017-Dec-21 09:00N 43°40' W 003°54'612.7
2017-Dec-21 08:30N 43°41' W 004°03'612.5
2017-Dec-21 08:00N 43°43' W 004°11'1512.3
2017-Dec-21 06:45N 43°45' W 004°32'2811.9
2017-Dec-21 04:24N 43°51' W 005°11'611.9
2017-Dec-21 03:56N 43°51' W 005°18'512.2
2017-Dec-21 03:30N 43°52' W 005°25'712.0
2017-Dec-21 02:53N 43°53' W 005°36'411.6
2017-Dec-21 02:30N 43°54' W 005°42'611.9
2017-Dec-21 01:59N 43°55' W 005°50'612.0
2017-Dec-21 01:29N 43°55' W 005°58'329 9.1
2017-Dec-19 13:29N 39°16' W 009°51'611.6
2017-Dec-19 13:00N 39°10' W 009°51'611.7
2017-Dec-19 12:30N 39°04' W 009°51'611.7
2017-Dec-19 12:00N 38°59' W 009°51'611.5
2017-Dec-19 11:30N 38°53' W 009°51'611.5
2017-Dec-19 11:00N 38°47' W 009°52'611.2
2017-Dec-19 10:30N 38°41' W 009°51'611.1
2017-Dec-19 10:00N 38°36' W 009°49'511.0
2017-Dec-19 09:30N 38°31' W 009°48'611.2
2017-Dec-19 09:00N 38°25' W 009°46'611.3
2017-Dec-19 08:30N 38°20' W 009°44'611.5
2017-Dec-19 08:00N 38°14' W 009°43'611.7
2017-Dec-19 07:30N 38°08' W 009°41'611.5
2017-Dec-19 07:00N 38°03' W 009°40'611.4
2017-Dec-19 06:30N 37°57' W 009°38'611.6
2017-Dec-19 06:00N 37°52' W 009°36'611.6
2017-Dec-19 05:30N 37°46' W 009°34'611.2
2017-Dec-19 05:00N 37°41' W 009°32'611.7
2017-Dec-19 04:28N 37°35' W 009°30'712.1
2017-Dec-19 03:55N 37°28' W 009°29'2011.9
2017-Dec-19 02:16N 37°09' W 009°23'3011.1
2017-Dec-18 23:31N 36°43' W 009°04'712.0
2017-Dec-18 22:56N 36°41' W 008°55'512.2
2017-Dec-18 22:29N 36°39' W 008°49'  
Track history (hours):
 
Tides and Currents Weather Stations Pressure Air Temp Water Temp Dewpoint Dewpoint Depression Visibility Wind Speed Wind Dir Waves Ship Positions

Agia Eirini

Last reported at 2017-Dec-28 11:18 UTC. Time now 2018-Jan-20 15:32 UTC.
Position N 27°43' W 015°14'.
Warning: this ship's position is 23 days out of date.

Length 190 m; draft 10.1 m.

Type: Cargo ship. MMSI: 538005075.

Date/timePositionNaut miles runAvg speedWind from/ knotsBaromVisibWave heightAir tempDewpointWater temp
2017-Dec-28 11:18N 27°43' W 015°14'412.1
2017-Dec-28 10:58N 27°47' W 015°14'612.5
2017-Dec-28 10:30N 27°53' W 015°15'612.6
2017-Dec-28 10:00N 27°59' W 015°16'612.2
2017-Dec-28 09:30N 28°04' W 015°20'4 7.6
2017-Dec-28 09:00N 28°06' W 015°24'0 0.2
2017-Dec-28 08:30N 28°06' W 015°24'0 0.0
2017-Dec-28 08:00N 28°06' W 015°24'0 0.0
2017-Dec-28 07:30N 28°06' W 015°24'0 0.0
2017-Dec-28 07:00N 28°06' W 015°24'0 0.1
2017-Dec-28 06:30N 28°06' W 015°24'0 0.0
2017-Dec-28 06:00N 28°06' W 015°24'0 0.0
2017-Dec-28 05:30N 28°06' W 015°24'0 0.0
2017-Dec-28 05:00N 28°06' W 015°24'0 0.0
2017-Dec-28 04:30N 28°06' W 015°24'0 0.0
2017-Dec-28 04:00N 28°06' W 015°24'0 0.0
2017-Dec-28 03:30N 28°06' W 015°24'0 0.0
2017-Dec-28 03:00N 28°06' W 015°24'0 0.1
2017-Dec-28 02:30N 28°06' W 015°24'0 0.0
2017-Dec-28 02:00N 28°06' W 015°24'0 0.0
2017-Dec-28 01:30N 28°06' W 015°24'0 0.0
2017-Dec-28 01:00N 28°06' W 015°24'0 0.0
2017-Dec-28 00:30N 28°06' W 015°24'0 0.3
2017-Dec-28 00:00N 28°06' W 015°24'0 0.3
2017-Dec-27 23:30N 28°06' W 015°24'1 1.9
2017-Dec-27 23:00N 28°07' W 015°23'0 0.9
2017-Dec-27 22:30N 28°07' W 015°23'1 2.9
2017-Dec-27 22:00N 28°08' W 015°22'4 8.8
2017-Dec-27 21:30N 28°12' W 015°19'612.3
2017-Dec-27 21:00N 28°17' W 015°15'612.1
2017-Dec-27 20:30N 28°22' W 015°11'612.3
2017-Dec-27 20:00N 28°27' W 015°07'612.6
2017-Dec-27 19:30N 28°32' W 015°04'612.6
2017-Dec-27 19:00N 28°38' W 015°00'612.6
2017-Dec-27 18:30N 28°44' W 014°57'  
2017-Dec-23 20:37N 43°53' W 005°24'211.9
2017-Dec-23 20:30N 43°52' W 005°22'612.0
2017-Dec-23 19:59N 43°51' W 005°13'4412.0
2017-Dec-23 16:21N 43°43' W 004°14'411.9
2017-Dec-23 16:00N 43°42' W 004°08'611.6
2017-Dec-23 15:30N 43°41' W 004°00'611.7
2017-Dec-23 15:00N 43°40' W 003°52'611.8
2017-Dec-23 14:30N 43°39' W 003°44'611.9
2017-Dec-23 14:00N 43°37' W 003°36'611.9
2017-Dec-23 13:30N 43°36' W 003°29'611.4
2017-Dec-23 13:00N 43°33' W 003°22'611.8
2017-Dec-23 12:30N 43°29' W 003°15'611.8
2017-Dec-23 12:00N 43°26' W 003°09'5 9.6
2017-Dec-23 11:30N 43°22' W 003°04'2 4.6
2017-Dec-23 11:00N 43°20' W 003°02'0 0.1
2017-Dec-23 10:30N 43°21' W 003°02'0 0.0
2017-Dec-23 10:00N 43°21' W 003°02'0 0.0
2017-Dec-23 09:30N 43°21' W 003°02'0 0.0
2017-Dec-23 09:00N 43°21' W 003°02'0 0.0
2017-Dec-23 08:30N 43°21' W 003°02'0 0.0
2017-Dec-23 08:00N 43°21' W 003°02'0 0.0
2017-Dec-23 07:30N 43°21' W 003°02'0 0.0
2017-Dec-23 07:00N 43°21' W 003°02'0 0.0
2017-Dec-23 06:30N 43°21' W 003°02'0 0.0
2017-Dec-23 06:00N 43°21' W 003°02'0 0.0
2017-Dec-23 05:30N 43°21' W 003°02'0 0.0
2017-Dec-23 05:00N 43°21' W 003°02'0 0.0
2017-Dec-23 04:30N 43°21' W 003°02'0 0.0
2017-Dec-23 04:00N 43°21' W 003°02'0 0.0
2017-Dec-23 03:30N 43°21' W 003°02'0 0.0
2017-Dec-23 03:00N 43°21' W 003°02'0 0.0
2017-Dec-23 02:30N 43°21' W 003°02'0 0.0
2017-Dec-23 02:00N 43°21' W 003°02'0 0.0
2017-Dec-23 01:30N 43°21' W 003°02'0 0.0
2017-Dec-23 01:00N 43°21' W 003°02'0 0.0
2017-Dec-23 00:30N 43°21' W 003°02'0 0.0
2017-Dec-23 00:00N 43°21' W 003°02'0 0.0
2017-Dec-22 23:30N 43°21' W 003°02'0 0.0
2017-Dec-22 23:00N 43°21' W 003°02'0 0.0
2017-Dec-22 22:30N 43°21' W 003°02'0 0.0
2017-Dec-22 22:00N 43°21' W 003°02'0 0.0
2017-Dec-22 21:30N 43°21' W 003°02'0 0.0
2017-Dec-22 21:00N 43°21' W 003°02'0 0.0
2017-Dec-22 20:30N 43°21' W 003°02'0 0.0
2017-Dec-22 20:00N 43°21' W 003°02'0 0.0
2017-Dec-22 19:30N 43°21' W 003°02'0 0.0
2017-Dec-22 19:00N 43°21' W 003°02'0 0.0
2017-Dec-22 18:30N 43°21' W 003°02'0 0.0
2017-Dec-22 18:00N 43°21' W 003°02'0 0.0
2017-Dec-22 17:30N 43°21' W 003°02'0 0.0
2017-Dec-22 17:00N 43°21' W 003°02'0 0.0
2017-Dec-22 16:30N 43°21' W 003°02'0 0.0
2017-Dec-22 16:00N 43°21' W 003°02'0 0.0
2017-Dec-22 15:30N 43°21' W 003°02'0 0.0
2017-Dec-22 15:00N 43°21' W 003°02'0 0.0
2017-Dec-22 14:30N 43°21' W 003°02'0 0.0
2017-Dec-22 14:00N 43°21' W 003°02'0 0.0
2017-Dec-22 13:30N 43°21' W 003°02'0 0.0
2017-Dec-22 13:00N 43°21' W 003°02'0 0.0
2017-Dec-22 12:30N 43°21' W 003°02'0 0.0
2017-Dec-22 12:00N 43°21' W 003°02'0 0.0
2017-Dec-22 11:30N 43°21' W 003°02'0 0.0
2017-Dec-22 11:00N 43°21' W 003°02'0 0.0
2017-Dec-22 10:30N 43°21' W 003°02'0 0.0
2017-Dec-22 10:00N 43°21' W 003°02'0 0.0
2017-Dec-22 09:30N 43°21' W 003°02'0 0.0
2017-Dec-22 09:00N 43°21' W 003°02'0 0.0
2017-Dec-22 08:30N 43°21' W 003°02'0 0.0
2017-Dec-22 08:00N 43°21' W 003°02'0 0.0
2017-Dec-22 07:30N 43°21' W 003°02'0 0.0
2017-Dec-22 07:00N 43°21' W 003°02'0 0.0
2017-Dec-22 06:30N 43°21' W 003°02'0 0.0
2017-Dec-22 06:00N 43°21' W 003°02'0 0.0
2017-Dec-22 05:30N 43°21' W 003°02'0 0.0
2017-Dec-22 05:00N 43°21' W 003°02'0 0.0
2017-Dec-22 04:30N 43°21' W 003°02'0 0.0
2017-Dec-22 04:00N 43°21' W 003°02'0 0.0
2017-Dec-22 03:30N 43°21' W 003°02'0 0.0
2017-Dec-22 03:00N 43°21' W 003°02'0 0.0
2017-Dec-22 02:30N 43°21' W 003°02'0 0.0
2017-Dec-22 02:00N 43°21' W 003°02'0 0.0
2017-Dec-22 01:30N 43°21' W 003°02'0 0.0
2017-Dec-22 01:00N 43°21' W 003°02'0 0.0
2017-Dec-22 00:30N 43°21' W 003°02'0 0.0
2017-Dec-22 00:00N 43°21' W 003°02'0 0.0
2017-Dec-21 23:30N 43°21' W 003°02'0 0.0
2017-Dec-21 23:00N 43°21' W 003°02'0 0.0
2017-Dec-21 22:30N 43°21' W 003°02'0 0.0
2017-Dec-21 22:00N 43°21' W 003°02'0 0.0
2017-Dec-21 21:30N 43°21' W 003°02'0 0.0
2017-Dec-21 21:00N 43°21' W 003°02'0 0.0
2017-Dec-21 20:30N 43°21' W 003°02'0 0.0
2017-Dec-21 20:00N 43°21' W 003°02'0 0.0
2017-Dec-21 19:30N 43°21' W 003°02'0 0.0
2017-Dec-21 19:00N 43°21' W 003°02'0 0.0
2017-Dec-21 18:29N 43°21' W 003°02'0 0.0
2017-Dec-21 17:59N 43°21' W 003°02'0 0.0
2017-Dec-21 17:29N 43°21' W 003°02'0 0.0
2017-Dec-21 16:56N 43°21' W 003°02'0 0.0
2017-Dec-21 16:29N 43°21' W 003°02'0 0.0
2017-Dec-21 15:59N 43°21' W 003°02'0 0.0
2017-Dec-21 15:29N 43°21' W 003°02'0 0.0
2017-Dec-21 14:59N 43°21' W 003°02'0 0.0
2017-Dec-21 14:29N 43°21' W 003°02'0 0.0
2017-Dec-21 13:59N 43°21' W 003°02'0 0.0
2017-Dec-21 13:29N 43°21' W 003°02'0 0.3
2017-Dec-21 13:00N 43°21' W 003°02'2 4.3
2017-Dec-21 12:30N 43°22' W 003°04'4 7.9
2017-Dec-21 12:00N 43°25' W 003°07'611.9
2017-Dec-21 11:30N 43°28' W 003°14'613.0
2017-Dec-21 11:00N 43°32' W 003°21'612.6
2017-Dec-21 10:30N 43°34' W 003°29'612.6
2017-Dec-21 10:00N 43°36' W 003°38'612.5
2017-Dec-21 09:30N 43°38' W 003°46'612.5
2017-Dec-21 09:00N 43°40' W 003°54'612.7
2017-Dec-21 08:30N 43°41' W 004°03'612.5
2017-Dec-21 08:00N 43°43' W 004°11'1512.3
2017-Dec-21 06:45N 43°45' W 004°32'2811.9
2017-Dec-21 04:24N 43°51' W 005°11'611.9
2017-Dec-21 03:56N 43°51' W 005°18'512.2
2017-Dec-21 03:30N 43°52' W 005°25'712.0
2017-Dec-21 02:53N 43°53' W 005°36'411.6
2017-Dec-21 02:30N 43°54' W 005°42'611.9
2017-Dec-21 01:59N 43°55' W 005°50'612.0
2017-Dec-21 01:29N 43°55' W 005°58'329 9.1
2017-Dec-19 13:29N 39°16' W 009°51'611.6
2017-Dec-19 13:00N 39°10' W 009°51'611.7
2017-Dec-19 12:30N 39°04' W 009°51'611.7
2017-Dec-19 12:00N 38°59' W 009°51'611.5
2017-Dec-19 11:30N 38°53' W 009°51'611.5
2017-Dec-19 11:00N 38°47' W 009°52'611.2
2017-Dec-19 10:30N 38°41' W 009°51'611.1
2017-Dec-19 10:00N 38°36' W 009°49'511.0
2017-Dec-19 09:30N 38°31' W 009°48'611.2
2017-Dec-19 09:00N 38°25' W 009°46'611.3
2017-Dec-19 08:30N 38°20' W 009°44'611.5
2017-Dec-19 08:00N 38°14' W 009°43'611.7
2017-Dec-19 07:30N 38°08' W 009°41'611.5
2017-Dec-19 07:00N 38°03' W 009°40'611.4
2017-Dec-19 06:30N 37°57' W 009°38'611.6
2017-Dec-19 06:00N 37°52' W 009°36'611.6
2017-Dec-19 05:30N 37°46' W 009°34'611.2
2017-Dec-19 05:00N 37°41' W 009°32'611.7
2017-Dec-19 04:28N 37°35' W 009°30'712.1
2017-Dec-19 03:55N 37°28' W 009°29'2011.9
2017-Dec-19 02:16N 37°09' W 009°23'3011.1
2017-Dec-18 23:31N 36°43' W 009°04'712.0
2017-Dec-18 22:56N 36°41' W 008°55'512.2
2017-Dec-18 22:29N 36°39' W 008°49'  

Dump ship's entire track history